Time;durP1;ratioP1;P1;durP2;ratioP2;P2;SDS_P1;SDS_P2;PMS_P1;PMS_P2;Temp;Humidity;BMP_temperature;BMP_pressure;BME280_temperature;BME280_humidity;BME280_pressure;Samples;Min_cycle;Max_cycle;Signal;HPM_P1;HPM_P2
2022/09/27 00:01:47;;;;;;;0.40;0.20;;;;;;;;;;10339811;28;20689;-64
2022/09/27 00:06:49;;;;;;;1.58;0.20;;;;;;;;;;10342102;28;20045;-64
2022/09/27 00:11:51;;;;;;;0.40;0.20;;;;;;;;;;10340819;28;20041;-64
2022/09/27 00:16:53;;;;;;;0.55;0.20;;;;;;;;;;10342068;28;20091;-64
2022/09/27 00:22:00;;;;;;;0.57;0.20;;;;;;;;;;10342044;28;20117;-63
2022/09/27 00:27:02;;;;;;;0.55;0.30;;;;;;;;;;10342203;28;20058;-63
2022/09/27 00:32:04;;;;;;;0.60;0.30;;;;;;;;;;10346776;28;20129;-65
2022/09/27 00:37:07;;;;;;;0.60;0.20;;;;;;;;;;10347405;28;20077;-65
2022/09/27 00:42:10;;;;;;;0.55;0.20;;;;;;;;;;10345271;28;20446;-65
2022/09/27 00:47:24;;;;;;;0.43;0.17;;;;;;;;;;10345590;28;20090;-65
2022/09/27 00:52:32;;;;;;;1.67;0.20;;;;;;;;;;10346568;28;20076;-65
2022/09/27 00:57:34;;;;;;;1.17;0.40;;;;;;;;;;10346769;28;20058;-63
2022/09/27 01:02:41;;;;;;;1.60;0.10;;;;;;;;;;10349082;28;20515;-65
2022/09/27 01:07:43;;;;;;;0.20;0.20;;;;;;;;;;10343503;28;20137;-64
2022/09/27 01:13:04;;;;;;;0.22;0.20;;;;;;;;;;10342069;28;20124;-66
2022/09/27 01:18:17;;;;;;;0.10;0.10;;;;;;;;;;10339708;28;20050;-64
2022/09/27 01:23:45;;;;;;;0.35;0.20;;;;;;;;;;10340429;28;20056;-65
2022/09/27 01:28:55;;;;;;;2.42;0.20;;;;;;;;;;10345233;28;20054;-64
2022/09/27 01:34:05;;;;;;;3.78;0.30;;;;;;;;;;10344713;28;20048;-64
2022/09/27 01:39:21;;;;;;;0.50;0.30;;;;;;;;;;10344420;28;20129;-64
2022/09/27 01:44:30;;;;;;;0.40;0.30;;;;;;;;;;10345529;28;20060;-64
2022/09/27 01:49:46;;;;;;;0.50;0.30;;;;;;;;;;10340337;28;20056;-67
2022/09/27 01:54:51;;;;;;;1.95;0.40;;;;;;;;;;10346698;28;20064;-66
2022/09/27 01:59:59;;;;;;;1.15;0.30;;;;;;;;;;10345961;28;20132;-65
2022/09/27 02:05:01;;;;;;;;;;;;;;;;;;10340826;28;20125;-66
2022/09/27 02:10:09;;;;;;;0.93;0.20;;;;;;;;;;10341479;28;19928;-65
2022/09/27 02:15:13;;;;;;;0.40;0.30;;;;;;;;;;10341579;28;20065;-64
2022/09/27 02:20:31;;;;;;;0.98;0.40;;;;;;;;;;10348348;28;20137;-66
2022/09/27 02:26:05;;;;;;;3.03;0.35;;;;;;;;;;10344591;28;20072;-65
2022/09/27 02:31:07;;;;;;;0.68;0.30;;;;;;;;;;10311834;28;20131;-65
2022/09/27 02:36:10;;;;;;;3.65;0.40;;;;;;;;;;10344134;28;20060;-65
2022/09/27 02:41:13;;;;;;;2.63;0.40;;;;;;;;;;10345113;28;20045;-65
2022/09/27 02:46:35;;;;;;;2.88;0.70;;;;;;;;;;10324556;28;20052;-65
2022/09/27 02:51:46;;;;;;;3.13;0.52;;;;;;;;;;10337668;28;20104;-65
2022/09/27 02:56:54;;;;;;;0.82;0.30;;;;;;;;;;10341415;28;20484;-64
2022/09/27 03:01:56;;;;;;;2.63;0.43;;;;;;;;;;10340264;28;20586;-65
2022/09/27 03:06:59;;;;;;;0.90;0.25;;;;;;;;;;10330962;28;20052;-65
2022/09/27 03:12:01;;;;;;;1.83;0.30;;;;;;;;;;10342913;28;20132;-65
2022/09/27 03:17:03;;;;;;;2.70;0.20;;;;;;;;;;10341187;28;20507;-64
2022/09/27 03:22:06;;;;;;;0.93;0.30;;;;;;;;;;10341736;28;20129;-64
2022/09/27 03:27:08;;;;;;;0.77;0.20;;;;;;;;;;10345564;28;20073;-65
2022/09/27 03:32:11;;;;;;;0.30;0.10;;;;;;;;;;10343308;28;20049;-66
2022/09/27 03:37:13;;;;;;;0.22;0.10;;;;;;;;;;10341333;28;20049;-64
2022/09/27 03:42:15;;;;;;;0.40;0.00;;;;;;;;;;10344362;28;20060;-64
2022/09/27 03:47:17;;;;;;;0.52;0.10;;;;;;;;;;10335819;28;20046;-64
2022/09/27 03:52:19;;;;;;;0.10;0.10;;;;;;;;;;10335887;28;20056;-65
2022/09/27 03:57:21;;;;;;;0.90;0.10;;;;;;;;;;10339430;28;20125;-65
2022/09/27 04:02:23;;;;;;;0.28;0.10;;;;;;;;;;10341205;28;20145;-64
2022/09/27 04:07:25;;;;;;;2.25;0.10;;;;;;;;;;10334911;28;20041;-63
2022/09/27 04:12:27;;;;;;;0.25;0.10;;;;;;;;;;10347801;28;20169;-63
2022/09/27 04:17:29;;;;;;;0.10;0.10;;;;;;;;;;10346555;28;20136;-63
2022/09/27 04:22:33;;;;;;;0.20;0.10;;;;;;;;;;10341816;28;20500;-63
2022/09/27 04:27:35;;;;;;;1.05;0.00;;;;;;;;;;10347613;28;20137;-63
2022/09/27 04:32:44;;;;;;;0.10;0.10;;;;;;;;;;10344282;28;20108;-63
2022/09/27 04:37:46;;;;;;;4.03;0.13;;;;;;;;;;10345985;28;20136;-62
2022/09/27 04:42:49;;;;;;;0.20;0.10;;;;;;;;;;10345479;28;20163;-63
2022/09/27 04:47:51;;;;;;;0.10;0.10;;;;;;;;;;10348118;28;20049;-62
2022/09/27 04:52:53;;;;;;;0.10;0.10;;;;;;;;;;10347515;28;20042;-63
2022/09/27 04:57:55;;;;;;;0.10;0.10;;;;;;;;;;10347935;28;20061;-62
2022/09/27 05:02:58;;;;;;;0.98;0.20;;;;;;;;;;10347351;28;20568;-61
2022/09/27 05:08:00;;;;;;;0.30;0.10;;;;;;;;;;10363700;28;20060;-62
2022/09/27 05:13:02;;;;;;;0.52;0.10;;;;;;;;;;10337489;28;20085;-63
2022/09/27 05:18:07;;;;;;;1.25;0.10;;;;;;;;;;10343136;28;20165;-61
2022/09/27 05:23:09;;;;;;;0.30;0.15;;;;;;;;;;10345586;28;20456;-66
2022/09/27 05:28:11;;;;;;;0.28;0.10;;;;;;;;;;10343118;28;20053;-66
2022/09/27 05:33:13;;;;;;;0.85;0.10;;;;;;;;;;10342939;28;20342;-67
2022/09/27 05:38:15;;;;;;;0.15;0.10;;;;;;;;;;10343212;28;20091;-67
2022/09/27 05:43:18;;;;;;;1.15;0.40;;;;;;;;;;10346183;28;20141;-66
2022/09/27 05:48:21;;;;;;;1.00;0.32;;;;;;;;;;10343640;28;20213;-66
2022/09/27 05:53:23;;;;;;;0.13;0.10;;;;;;;;;;10344768;28;20060;-66
2022/09/27 05:58:27;;;;;;;1.05;0.10;;;;;;;;;;10345488;28;20060;-67
2022/09/27 06:03:29;;;;;;;0.30;0.10;;;;;;;;;;10344917;28;20064;-67
2022/09/27 06:08:34;;;;;;;0.70;0.08;;;;;;;;;;10344297;28;20136;-67
2022/09/27 06:13:37;;;;;;;1.55;0.13;;;;;;;;;;10332711;28;20137;-67
2022/09/27 06:18:39;;;;;;;0.65;0.50;;;;;;;;;;10343651;28;20140;-67
2022/09/27 06:23:41;;;;;;;0.68;0.63;;;;;;;;;;10343387;28;20080;-67
2022/09/27 06:28:44;;;;;;;0.70;0.10;;;;;;;;;;10328849;28;20129;-66
2022/09/27 06:33:48;;;;;;;0.40;0.10;;;;;;;;;;10339768;28;20396;-66
2022/09/27 06:38:50;;;;;;;0.20;0.10;;;;;;;;;;10340315;28;20131;-66
2022/09/27 06:43:52;;;;;;;0.90;0.20;;;;;;;;;;10340559;28;20112;-66
2022/09/27 06:48:54;;;;;;;3.70;0.10;;;;;;;;;;10343486;28;20129;-67
2022/09/27 06:53:56;;;;;;;0.40;0.20;;;;;;;;;;10339795;28;20504;-66
2022/09/27 07:04:35;;;;;;;0.40;0.20;;;;;;;;;;10263997;28;20045;-66
2022/09/27 07:09:39;;;;;;;0.20;0.10;;;;;;;;;;10340907;28;20117;-66
2022/09/27 07:14:41;;;;;;;2.00;0.17;;;;;;;;;;10339127;28;20045;-66
2022/09/27 07:19:43;;;;;;;0.75;0.17;;;;;;;;;;10339438;28;20062;-66
2022/09/27 07:24:45;;;;;;;2.05;0.25;;;;;;;;;;10341230;28;20104;-66
2022/09/27 07:29:47;;;;;;;0.00;0.00;;;;;;;;;;10339692;28;20050;-65
2022/09/27 07:34:49;;;;;;;0.73;0.10;;;;;;;;;;10341462;28;20363;-66
2022/09/27 07:39:52;;;;;;;0.17;0.10;;;;;;;;;;10327885;28;20139;-66
2022/09/27 07:44:54;;;;;;;0.65;0.10;;;;;;;;;;10347230;28;20139;-66
2022/09/27 07:49:57;;;;;;;0.57;0.20;;;;;;;;;;10350655;28;20050;-65
2022/09/27 07:55:00;;;;;;;1.00;0.30;;;;;;;;;;10349095;28;20146;-65
2022/09/27 08:00:04;;;;;;;0.70;0.20;;;;;;;;;;10342224;28;20234;-67
2022/09/27 08:05:06;;;;;;;0.38;0.20;;;;;;;;;;10346708;28;20588;-66
2022/09/27 08:10:09;;;;;;;0.10;0.10;;;;;;;;;;10348210;28;20117;-66
2022/09/27 08:15:11;;;;;;;1.67;0.20;;;;;;;;;;10342058;28;20133;-65
2022/09/27 08:20:14;;;;;;;0.10;0.03;;;;;;;;;;10345385;28;20096;-66
2022/09/27 08:25:16;;;;;;;0.35;0.10;;;;;;;;;;10345991;28;20137;-66
2022/09/27 08:30:18;;;;;;;0.25;0.10;;;;;;;;;;10349157;28;20124;-65
2022/09/27 08:35:22;;;;;;;0.43;0.00;;;;;;;;;;10349997;28;20038;-64
2022/09/27 08:40:28;;;;;;;0.30;0.10;;;;;;;;;;10349744;28;20312;-65
2022/09/27 08:45:45;;;;;;;1.13;0.10;;;;;;;;;;10343429;28;20940;-66
2022/09/27 08:50:48;;;;;;;3.88;0.00;;;;;;;;;;10349228;28;20050;-66
2022/09/27 08:55:55;;;;;;;0.30;0.05;;;;;;;;;;10339845;28;20141;-67
2022/09/27 09:00:59;;;;;;;0.10;0.00;;;;;;;;;;10340561;28;20049;-66
2022/09/27 09:06:24;;;;;;;0.30;0.10;;;;;;;;;;10338598;28;20133;-67
2022/09/27 09:17:23;;;;;;;0.80;0.00;;;;;;;;;;10340191;28;20215;-65
2022/09/27 09:22:33;;;;;;;1.65;0.10;;;;;;;;;;10344389;28;20073;-66
2022/09/27 09:27:41;;;;;;;2.90;0.05;;;;;;;;;;10339562;28;20086;-65
2022/09/27 09:33:05;;;;;;;1.38;0.10;;;;;;;;;;10345020;28;20080;-64
2022/09/27 09:38:13;;;;;;;2.97;0.10;;;;;;;;;;10346461;28;20403;-64
2022/09/27 09:43:29;;;;;;;1.05;0.10;;;;;;;;;;10344247;28;20168;-65
2022/09/27 09:48:36;;;;;;;1.05;0.00;;;;;;;;;;10342994;28;20057;-62
2022/09/27 09:53:41;;;;;;;2.25;0.10;;;;;;;;;;10346815;28;20781;-65
2022/09/27 09:58:49;;;;;;;1.17;0.00;;;;;;;;;;10337478;28;20078;-62
2022/09/27 10:03:53;;;;;;;0.98;0.10;;;;;;;;;;10340379;28;20046;-62
2022/09/27 10:08:55;;;;;;;0.10;0.10;;;;;;;;;;10342374;28;20556;-65
2022/09/27 10:13:57;;;;;;;5.00;0.10;;;;;;;;;;10355270;28;20076;-65
2022/09/27 10:19:02;;;;;;;0.03;0.00;;;;;;;;;;10359322;28;20112;-64
2022/09/27 10:24:11;;;;;;;0.20;0.05;;;;;;;;;;10345787;28;20129;-66
2022/09/27 10:29:19;;;;;;;1.15;0.08;;;;;;;;;;10342146;28;20061;-66
2022/09/27 10:34:21;;;;;;;2.08;0.10;;;;;;;;;;10340450;28;20514;-66
2022/09/27 10:39:24;;;;;;;1.85;0.10;;;;;;;;;;10343942;28;20132;-65
2022/09/27 10:44:27;;;;;;;3.20;0.10;;;;;;;;;;10340755;28;20064;-64
2022/09/27 10:49:35;;;;;;;0.52;0.10;;;;;;;;;;10340144;28;20136;-66
2022/09/27 10:54:39;;;;;;;0.10;0.00;;;;;;;;;;10338579;28;20125;-64
2022/09/27 10:59:44;;;;;;;0.32;0.00;;;;;;;;;;10344179;28;20427;-64
2022/09/27 11:05:02;;;;;;;0.13;0.10;;;;;;;;;;10339947;28;20096;-62
2022/09/27 11:10:21;;;;;;;0.10;0.00;;;;;;;;;;10337342;28;20061;-64
2022/09/27 11:15:24;;;;;;;1.30;0.10;;;;;;;;;;10337781;28;20432;-63
2022/09/27 11:20:43;;;;;;;3.28;0.10;;;;;;;;;;10340984;28;20128;-63
2022/09/27 11:25:55;;;;;;;0.15;0.00;;;;;;;;;;10319446;28;20247;-66
2022/09/27 11:31:03;;;;;;;1.08;0.00;;;;;;;;;;10342731;28;20049;-65
2022/09/27 11:36:18;;;;;;;0.00;0.00;;;;;;;;;;10339528;28;20474;-66
2022/09/27 11:41:39;;;;;;;2.22;0.10;;;;;;;;;;10338665;28;20049;-62
2022/09/27 11:46:43;;;;;;;0.17;0.10;;;;;;;;;;10340442;28;20976;-65
2022/09/27 11:52:02;;;;;;;0.20;0.00;;;;;;;;;;10343756;28;20057;-64
2022/09/27 11:57:22;;;;;;;0.68;0.08;;;;;;;;;;10347025;28;20088;-65
2022/09/27 12:02:43;;;;;;;0.90;0.00;;;;;;;;;;10336630;28;20420;-65
2022/09/27 12:07:59;;;;;;;0.00;0.00;;;;;;;;;;10339416;28;20054;-62
2022/09/27 12:13:02;;;;;;;1.65;0.10;;;;;;;;;;10337788;28;20129;-65
2022/09/27 12:18:20;;;;;;;1.67;0.10;;;;;;;;;;10333716;28;20411;-64
2022/09/27 12:23:25;;;;;;;0.10;0.00;;;;;;;;;;10337613;28;20057;-65
2022/09/27 12:28:49;;;;;;;0.10;0.00;;;;;;;;;;10346389;28;20140;-65
2022/09/27 12:34:01;;;;;;;0.20;0.20;;;;;;;;;;10339758;28;20050;-66
2022/09/27 12:39:12;;;;;;;0.13;0.00;;;;;;;;;;10347936;28;20038;-68
2022/09/27 12:44:14;;;;;;;0.45;0.10;;;;;;;;;;10347964;28;20049;-65
2022/09/27 12:49:34;;;;;;;0.20;0.10;;;;;;;;;;10345427;28;20050;-64
2022/09/27 12:54:42;;;;;;;3.03;0.10;;;;;;;;;;10342493;28;20136;-63
2022/09/27 12:59:56;;;;;;;0.20;0.10;;;;;;;;;;10345861;28;20117;-64
2022/09/27 13:05:05;;;;;;;0.45;0.00;;;;;;;;;;10340599;28;20132;-65
2022/09/27 13:10:16;;;;;;;0.20;0.10;;;;;;;;;;10342217;28;20042;-65
2022/09/27 13:15:22;;;;;;;1.75;0.13;;;;;;;;;;10340033;28;22598;-66
2022/09/27 13:20:27;;;;;;;0.28;0.10;;;;;;;;;;10339290;28;20157;-67
2022/09/27 13:25:50;;;;;;;1.85;0.10;;;;;;;;;;10344168;28;20046;-67
2022/09/27 13:31:01;;;;;;;0.52;0.10;;;;;;;;;;10343938;28;20128;-65
2022/09/27 13:36:19;;;;;;;2.42;0.15;;;;;;;;;;10343338;28;20042;-64
2022/09/27 13:41:21;;;;;;;1.52;0.10;;;;;;;;;;10338562;28;20049;-68
2022/09/27 13:46:25;;;;;;;2.90;0.68;;;;;;;;;;10335911;28;20078;-63
2022/09/27 13:51:34;;;;;;;0.20;0.10;;;;;;;;;;10337837;28;20054;-63
2022/09/27 13:56:37;;;;;;;2.63;0.57;;;;;;;;;;10341103;28;20125;-64
2022/09/27 14:01:39;;;;;;;0.98;0.20;;;;;;;;;;10341913;28;20148;-65
2022/09/27 14:06:43;;;;;;;0.75;0.20;;;;;;;;;;10332656;28;20387;-63
2022/09/27 14:11:48;;;;;;;1.48;0.10;;;;;;;;;;10341390;28;20097;-65
2022/09/27 14:16:50;;;;;;;1.50;0.10;;;;;;;;;;10341022;28;20129;-65
2022/09/27 14:21:53;;;;;;;0.08;0.08;;;;;;;;;;10345212;28;20128;-60
2022/09/27 14:27:10;;;;;;;0.47;0.15;;;;;;;;;;10340635;28;20046;-60
2022/09/27 14:32:15;;;;;;;0.32;0.25;;;;;;;;;;10342731;28;20056;-60
2022/09/27 14:37:24;;;;;;;0.50;0.10;;;;;;;;;;10344348;28;20459;-64
2022/09/27 14:42:28;;;;;;;0.10;0.10;;;;;;;;;;10342663;28;20644;-62
2022/09/27 14:47:30;;;;;;;0.70;0.10;;;;;;;;;;10333878;28;20133;-64
2022/09/27 14:52:34;;;;;;;0.20;0.10;;;;;;;;;;10340053;28;20086;-63
2022/09/27 14:57:36;;;;;;;1.40;0.10;;;;;;;;;;10336670;28;20046;-64
2022/09/27 15:02:40;;;;;;;0.35;0.10;;;;;;;;;;10335050;28;20128;-65
2022/09/27 15:07:45;;;;;;;0.73;0.10;;;;;;;;;;10337508;28;20121;-63
2022/09/27 15:12:53;;;;;;;2.85;0.10;;;;;;;;;;10342068;28;20065;-65
2022/09/27 15:17:55;;;;;;;2.80;0.25;;;;;;;;;;10336635;28;20087;-66
2022/09/27 15:22:58;;;;;;;0.73;0.10;;;;;;;;;;10341250;28;20050;-65
2022/09/27 15:28:04;;;;;;;0.80;0.10;;;;;;;;;;10341696;28;20077;-66
2022/09/27 15:33:18;;;;;;;0.20;0.10;;;;;;;;;;10338326;28;20127;-65
2022/09/27 15:38:25;;;;;;;0.20;0.10;;;;;;;;;;10338112;28;20074;-66
2022/09/27 15:43:29;;;;;;;0.10;0.10;;;;;;;;;;10340102;28;20081;-66
2022/09/27 15:48:32;;;;;;;0.43;0.10;;;;;;;;;;10330449;28;20576;-67
2022/09/27 15:53:34;;;;;;;1.95;0.30;;;;;;;;;;10340103;28;20049;-66
2022/09/27 15:58:36;;;;;;;0.13;0.10;;;;;;;;;;10343974;28;20221;-66
2022/09/27 16:03:39;;;;;;;0.55;0.10;;;;;;;;;;10347614;28;20057;-66
2022/09/27 16:08:43;;;;;;;0.50;0.10;;;;;;;;;;10338410;28;20463;-66
2022/09/27 16:13:45;;;;;;;0.47;0.10;;;;;;;;;;10345879;28;20131;-67
2022/09/27 16:18:48;;;;;;;0.13;0.10;;;;;;;;;;10347228;28;20085;-66
2022/09/27 16:23:50;;;;;;;0.20;0.10;;;;;;;;;;10346161;28;20137;-64
2022/09/27 16:28:52;;;;;;;0.22;0.10;;;;;;;;;;10348701;28;20061;-68
2022/09/27 16:33:54;;;;;;;0.75;0.10;;;;;;;;;;10347303;28;20117;-69
2022/09/27 16:38:56;;;;;;;2.30;0.20;;;;;;;;;;10347221;28;20125;-69
2022/09/27 16:43:59;;;;;;;1.98;0.20;;;;;;;;;;10348876;28;20481;-68
2022/09/27 16:49:01;;;;;;;0.45;0.20;;;;;;;;;;10340591;28;20060;-69
2022/09/27 16:54:04;;;;;;;0.52;0.13;;;;;;;;;;10342622;28;20117;-71
2022/09/27 16:59:06;;;;;;;0.28;0.15;;;;;;;;;;10344252;28;20632;-69
2022/09/27 17:04:08;;;;;;;5.65;0.15;;;;;;;;;;10341639;28;20038;-70
2022/09/27 17:09:10;;;;;;;0.47;0.20;;;;;;;;;;10337537;28;20046;-71
2022/09/27 17:14:15;;;;;;;3.53;0.20;;;;;;;;;;10346024;28;20857;-69
2022/09/27 17:19:18;;;;;;;1.10;0.32;;;;;;;;;;10345086;28;20085;-61
2022/09/27 17:24:20;;;;;;;1.27;0.20;;;;;;;;;;10340163;28;20145;-63
2022/09/27 17:29:23;;;;;;;0.50;0.20;;;;;;;;;;10342804;28;20046;-62
2022/09/27 17:34:26;;;;;;;3.08;0.40;;;;;;;;;;10343761;28;20041;-62
2022/09/27 17:39:29;;;;;;;0.88;0.20;;;;;;;;;;10339366;28;20139;-62
2022/09/27 17:44:31;;;;;;;2.15;0.30;;;;;;;;;;10338947;28;20133;-61
2022/09/27 17:54:56;;;;;;;0.50;0.28;;;;;;;;;;10346262;28;20129;-60
2022/09/27 17:59:58;;;;;;;0.40;0.20;;;;;;;;;;10344251;28;20455;-62
2022/09/27 18:05:01;;;;;;;1.10;0.30;;;;;;;;;;10338983;28;20039;-61
2022/09/27 18:10:04;;;;;;;0.70;0.10;;;;;;;;;;10338135;28;20069;-61
2022/09/27 18:15:06;;;;;;;0.50;0.20;;;;;;;;;;10344792;28;20706;-61
2022/09/27 18:20:09;;;;;;;1.88;0.20;;;;;;;;;;10344560;28;20756;-63
2022/09/27 18:25:11;;;;;;;0.57;0.30;;;;;;;;;;10339164;28;20060;-65
2022/09/27 18:30:14;;;;;;;0.50;0.22;;;;;;;;;;10336113;28;20124;-61
2022/09/27 18:35:18;;;;;;;1.77;0.32;;;;;;;;;;10341017;28;20473;-61
2022/09/27 18:40:20;;;;;;;0.60;0.25;;;;;;;;;;10340125;28;20232;-60
2022/09/27 18:45:42;;;;;;;1.40;0.32;;;;;;;;;;10340000;28;20052;-60
2022/09/27 18:50:45;;;;;;;0.80;0.32;;;;;;;;;;10342626;28;20395;-60
2022/09/27 18:55:47;;;;;;;0.70;0.30;;;;;;;;;;10345671;28;20137;-61
2022/09/27 19:00:49;;;;;;;2.17;0.43;;;;;;;;;;10334133;28;20050;-60
2022/09/27 19:05:55;;;;;;;2.03;0.30;;;;;;;;;;10341182;28;20112;-60
2022/09/27 19:11:03;;;;;;;4.18;0.50;;;;;;;;;;10341640;28;20124;-60
2022/09/27 19:16:06;;;;;;;2.45;0.40;;;;;;;;;;10340710;28;20456;-61
2022/09/27 19:21:10;;;;;;;1.38;0.47;;;;;;;;;;10340263;28;20054;-61
2022/09/27 19:26:14;;;;;;;1.80;0.43;;;;;;;;;;10342465;28;20053;-61
2022/09/27 19:31:20;;;;;;;3.08;0.60;;;;;;;;;;10339285;28;20520;-61
2022/09/27 19:36:23;;;;;;;1.00;0.40;;;;;;;;;;10341740;28;20511;-60
2022/09/27 19:41:25;;;;;;;1.15;0.60;;;;;;;;;;10340978;28;20489;-60
2022/09/27 19:46:27;;;;;;;1.35;0.45;;;;;;;;;;10337812;28;20124;-60
2022/09/27 19:51:30;;;;;;;2.40;0.40;;;;;;;;;;10335704;28;20042;-61
2022/09/27 19:56:32;;;;;;;2.63;0.40;;;;;;;;;;10336600;28;20073;-60
2022/09/27 20:01:35;;;;;;;0.50;0.30;;;;;;;;;;10343465;28;20128;-61
2022/09/27 20:06:37;;;;;;;0.50;0.20;;;;;;;;;;10341573;28;20061;-61
2022/09/27 20:11:39;;;;;;;1.83;0.30;;;;;;;;;;10339253;28;20085;-60
2022/09/27 20:16:41;;;;;;;3.25;0.40;;;;;;;;;;10338163;28;20138;-60
2022/09/27 20:21:44;;;;;;;2.50;0.50;;;;;;;;;;10340991;28;20056;-60
2022/09/27 20:26:46;;;;;;;1.45;0.50;;;;;;;;;;10335252;28;20061;-61
2022/09/27 20:31:48;;;;;;;1.98;0.70;;;;;;;;;;10341713;28;20108;-61
2022/09/27 20:37:10;;;;;;;2.38;0.50;;;;;;;;;;10339905;28;20412;-61
2022/09/27 20:42:13;;;;;;;0.68;0.40;;;;;;;;;;10339229;28;20145;-60
2022/09/27 20:47:15;;;;;;;1.38;0.50;;;;;;;;;;10342128;28;20124;-61
2022/09/27 20:52:18;;;;;;;2.67;0.52;;;;;;;;;;10349172;28;20152;-60
2022/09/27 20:57:24;;;;;;;2.22;0.60;;;;;;;;;;10347891;28;20129;-60
2022/09/27 21:02:46;;;;;;;1.90;0.50;;;;;;;;;;10346849;28;20132;-61
2022/09/27 21:07:52;;;;;;;1.30;0.60;;;;;;;;;;10347391;28;20049;-61
2022/09/27 21:12:54;;;;;;;3.33;0.50;;;;;;;;;;10348243;28;20112;-61
2022/09/27 21:17:56;;;;;;;4.38;0.60;;;;;;;;;;10344472;28;20132;-61
2022/09/27 21:22:58;;;;;;;5.65;0.60;;;;;;;;;;10346128;28;20081;-61
2022/09/27 21:28:03;;;;;;;1.95;0.50;;;;;;;;;;10336429;28;20496;-60
2022/09/27 21:33:05;;;;;;;5.38;0.60;;;;;;;;;;10345488;28;20432;-61
2022/09/27 21:38:09;;;;;;;0.40;0.38;;;;;;;;;;10348086;28;20077;-61
2022/09/27 21:43:11;;;;;;;1.88;0.50;;;;;;;;;;10347773;28;20449;-61
2022/09/27 21:48:13;;;;;;;3.03;0.43;;;;;;;;;;10344304;28;20132;-60
2022/09/27 21:53:15;;;;;;;0.50;0.30;;;;;;;;;;10342453;28;20130;-61
2022/09/27 21:58:17;;;;;;;0.90;0.45;;;;;;;;;;10347613;28;20058;-60
2022/09/27 22:03:19;;;;;;;0.75;0.40;;;;;;;;;;10345158;28;20433;-60
2022/09/27 22:08:22;;;;;;;3.08;0.40;;;;;;;;;;10340630;28;20086;-60
2022/09/27 22:13:24;;;;;;;0.55;0.32;;;;;;;;;;10345527;28;20752;-60
2022/09/27 22:18:26;;;;;;;2.28;0.40;;;;;;;;;;10344816;28;20125;-60
2022/09/27 22:23:30;;;;;;;3.78;0.40;;;;;;;;;;10340983;28;20077;-60
2022/09/27 22:28:32;;;;;;;1.80;0.43;;;;;;;;;;10339839;28;20050;-61
2022/09/27 22:33:34;;;;;;;1.35;0.65;;;;;;;;;;10339991;28;20463;-61
2022/09/27 22:38:36;;;;;;;0.98;0.40;;;;;;;;;;10342236;28;20081;-60
2022/09/27 22:43:39;;;;;;;1.27;0.50;;;;;;;;;;10341068;28;20120;-60
2022/09/27 22:48:41;;;;;;;1.10;0.50;;;;;;;;;;10341009;28;20166;-60
2022/09/27 22:53:43;;;;;;;2.08;0.60;;;;;;;;;;10346555;28;20136;-60
2022/09/27 22:58:46;;;;;;;1.20;0.47;;;;;;;;;;10344707;28;20062;-60
2022/09/27 23:03:49;;;;;;;0.98;0.35;;;;;;;;;;10342701;28;20527;-60
2022/09/27 23:08:53;;;;;;;4.28;0.65;;;;;;;;;;10342814;28;20058;-61
2022/09/27 23:13:55;;;;;;;1.30;0.40;;;;;;;;;;10337751;28;20146;-61
2022/09/27 23:18:57;;;;;;;2.42;0.50;;;;;;;;;;10341457;28;20132;-61
2022/09/27 23:24:02;;;;;;;1.52;0.50;;;;;;;;;;10340373;28;20465;-60
2022/09/27 23:29:04;;;;;;;1.83;0.45;;;;;;;;;;10339748;28;20050;-61
2022/09/27 23:34:06;;;;;;;2.05;0.70;;;;;;;;;;10343972;28;20042;-61
2022/09/27 23:39:08;;;;;;;5.47;0.50;;;;;;;;;;10336984;28;20080;-61
2022/09/27 23:44:13;;;;;;;1.27;0.40;;;;;;;;;;10334528;28;20064;-61
2022/09/27 23:49:15;;;;;;;2.17;0.77;;;;;;;;;;10340123;28;20049;-60
2022/09/27 23:54:17;;;;;;;3.47;0.80;;;;;;;;;;10337618;28;20456;-62
2022/09/27 23:59:19;;;;;;;1.20;0.60;;;;;;;;;;10337071;28;20137;-62
